Time;durP1;ratioP1;P1;durP2;ratioP2;P2;SDS_P1;SDS_P2;PMS_P1;PMS_P2;Temp;Humidity;BMP_temperature;BMP_pressure;BME280_temperature;BME280_humidity;BME280_pressure;Samples;Min_cycle;Max_cycle;Signal;HPM_P1;HPM_P2
2023/01/10 00:00:36;;;;;;;4.40;2.85;;;5.50;99.90;;;;;;5075529;28;20263;-78
2023/01/10 00:03:09;;;;;;;3.90;2.50;;;5.50;99.90;;;;;;5075167;28;20200;-78
2023/01/10 00:06:13;;;;;;;5.07;2.42;;;5.50;99.90;;;;;;5093074;28;20260;-78
2023/01/10 00:08:39;;;;;;;2.83;2.20;;;5.50;99.90;;;;;;5075022;28;20172;-78
2023/01/10 00:13:22;;;;;;;3.17;2.10;;;5.50;99.90;;;;;;5096187;28;20179;-78
2023/01/10 00:13:55;;;;;;;4.03;2.50;;;5.40;99.90;;;;;;5096635;28;20315;-78
2023/01/10 00:16:21;;;;;;;2.73;2.50;;;5.30;99.90;;;;;;5078916;28;20173;-78
2023/01/10 00:18:47;;;;;;;4.60;2.33;;;5.40;99.90;;;;;;5078613;28;20289;-78
2023/01/10 00:21:15;;;;;;;3.90;2.30;;;5.40;99.90;;;;;;5078804;28;20634;-78
2023/01/10 00:23:44;;;;;;;4.27;2.23;;;5.50;99.90;;;;;;5078827;28;20201;-78
2023/01/10 00:26:10;;;;;;;3.70;2.30;;;5.50;99.90;;;;;;5079120;28;20181;-78
2023/01/10 00:28:38;;;;;;;3.77;2.20;;;5.60;99.90;;;;;;5097721;28;20204;-78
2023/01/10 00:31:05;;;;;;;4.65;2.50;;;5.60;99.90;;;;;;5079338;28;20275;-78
2023/01/10 00:33:35;;;;;;;5.80;2.42;;;5.50;99.90;;;;;;5079064;28;20362;-78
2023/01/10 00:36:03;;;;;;;5.95;2.15;;;5.50;99.90;;;;;;5078426;28;20173;-78
2023/01/10 00:38:30;;;;;;;5.63;2.20;;;5.40;99.90;;;;;;5078168;28;20208;-78
2023/01/10 00:40:56;;;;;;;3.13;2.27;;;5.40;99.90;;;;;;5078352;28;20709;-78
2023/01/10 00:46:07;;;;;;;4.60;2.33;;;5.30;99.90;;;;;;5096960;28;20165;-78
2023/01/10 00:48:33;;;;;;;2.53;2.20;;;5.20;99.90;;;;;;5078182;28;20219;-78
2023/01/10 00:50:59;;;;;;;5.00;2.20;;;5.10;99.90;;;;;;5096228;28;20212;-78
2023/01/10 00:53:24;;;;;;;6.53;2.23;;;5.10;99.90;;;;;;5096298;28;20197;-78
2023/01/10 00:55:50;;;;;;;3.83;2.50;;;5.00;99.90;;;;;;5078378;28;20188;-78
2023/01/10 00:58:35;;;;;;;2.60;2.20;;;4.90;99.90;;;;;;5078323;28;20197;-79
2023/01/10 01:01:00;;;;;;;4.80;2.50;;;4.80;99.90;;;;;;5078051;28;20178;-79
2023/01/10 01:03:26;;;;;;;3.93;2.70;;;4.70;99.90;;;;;;5077961;28;20200;-79
2023/01/10 01:05:51;;;;;;;6.30;2.67;;;4.60;99.90;;;;;;5078258;28;20173;-79
2023/01/10 01:08:18;;;;;;;4.70;2.80;;;4.50;99.90;;;;;;5078780;28;20216;-79
2023/01/10 01:10:44;;;;;;;4.17;2.67;;;4.30;99.90;;;;;;5078416;28;20185;-79
2023/01/10 01:13:17;;;;;;;5.10;3.17;;;4.30;99.90;;;;;;5078090;28;20197;-79
2023/01/10 01:15:43;;;;;;;4.77;2.83;;;4.20;99.90;;;;;;5077851;28;20188;-79
2023/01/10 01:18:12;;;;;;;4.00;2.70;;;4.20;99.90;;;;;;5077935;28;20197;-79
2023/01/10 01:20:39;;;;;;;5.37;2.70;;;4.20;99.90;;;;;;5077291;28;20176;-79
2023/01/10 01:23:05;;;;;;;3.43;2.00;;;4.20;99.90;;;;;;5078047;28;20205;-79
2023/01/10 01:25:30;;;;;;;2.70;2.33;;;4.10;99.90;;;;;;5078253;28;20184;-79
2023/01/10 01:27:56;;;;;;;4.60;2.40;;;4.20;99.90;;;;;;5077394;28;20208;-79
2023/01/10 01:31:16;;;;;;;4.03;2.60;;;4.20;99.90;;;;;;5077769;28;20181;-79
2023/01/10 01:33:41;;;;;;;4.03;2.60;;;4.30;99.90;;;;;;5077310;28;20239;-79
2023/01/10 01:36:12;;;;;;;4.97;2.50;;;4.40;99.90;;;;;;5077349;28;20180;-79
2023/01/10 01:38:39;;;;;;;4.17;2.40;;;4.30;99.90;;;;;;5095586;28;20203;-78
2023/01/10 01:44:20;;;;;;;2.73;2.37;;;4.20;99.90;;;;;;5095479;28;20200;-78
2023/01/10 01:46:52;;;;;;;6.07;2.80;;;4.10;99.90;;;;;;5077487;28;20172;-78
2023/01/10 01:49:21;;;;;;;3.57;2.60;;;4.10;99.90;;;;;;5077165;28;20161;-78
2023/01/10 01:51:54;;;;;;;4.50;2.70;;;4.00;99.90;;;;;;5095126;28;20173;-78
2023/01/10 01:54:19;;;;;;;4.73;3.00;;;4.00;99.90;;;;;;5076979;28;20566;-78
2023/01/10 01:56:54;;;;;;;4.33;2.60;;;4.10;99.90;;;;;;5077238;28;20649;-78
2023/01/10 01:59:51;;;;;;;3.83;2.83;;;4.10;99.90;;;;;;5076942;28;20177;-78
2023/01/10 02:02:48;;;;;;;5.10;3.20;;;4.10;99.90;;;;;;5061230;28;20272;-78
2023/01/10 02:05:16;;;;;;;3.67;2.93;;;4.00;99.90;;;;;;5075944;28;20234;-78
2023/01/10 02:07:44;;;;;;;5.17;2.87;;;4.00;99.90;;;;;;5095104;28;20181;-78
2023/01/10 02:10:27;;;;;;;4.60;2.80;;;4.00;99.90;;;;;;5076559;28;20188;-78
2023/01/10 02:12:54;;;;;;;3.47;2.83;;;4.10;99.90;;;;;;5077154;28;20196;-78
2023/01/10 02:15:21;;;;;;;3.70;2.80;;;4.10;99.90;;;;;;5094915;28;20210;-78
2023/01/10 02:17:48;;;;;;;6.43;3.57;;;4.30;99.90;;;;;;5094560;28;20207;-78
2023/01/10 02:20:16;;;;;;;3.53;2.77;;;4.40;99.90;;;;;;5076462;28;20211;-78
2023/01/10 02:23:03;;;;;;;3.43;2.77;;;4.50;99.90;;;;;;5076333;28;20250;-78
2023/01/10 02:26:02;;;;;;;4.10;3.17;;;4.60;99.90;;;;;;5094867;28;20163;-78
2023/01/10 02:28:55;;;;;;;4.50;2.60;;;4.60;99.90;;;;;;5076195;28;20582;-78
2023/01/10 02:32:05;;;;;;;3.53;2.90;;;4.60;99.90;;;;;;5076157;28;20265;-78
2023/01/10 02:34:34;;;;;;;2.87;2.47;;;4.70;99.90;;;;;;5094241;28;20605;-78
2023/01/10 02:37:08;;;;;;;4.67;2.50;;;4.80;99.90;;;;;;5076045;28;20218;-78
2023/01/10 02:40:01;;;;;;;6.43;2.90;;;4.70;99.90;;;;;;5076917;28;20623;-78
2023/01/10 02:42:50;;;;;;;3.97;2.40;;;4.70;99.90;;;;;;5075970;28;20205;-78
2023/01/10 02:45:28;;;;;;;3.03;2.60;;;4.60;99.90;;;;;;5094176;28;20156;-78
2023/01/10 02:47:55;;;;;;;3.23;2.60;;;4.50;99.90;;;;;;5076162;28;20172;-78
2023/01/10 02:50:46;;;;;;;3.30;2.40;;;4.60;99.90;;;;;;5094024;28;20168;-78
2023/01/10 02:53:34;;;;;;;3.70;2.40;;;4.60;99.90;;;;;;5075821;28;20201;-78
2023/01/10 02:56:18;;;;;;;3.97;2.83;;;4.60;99.90;;;;;;5094263;28;20165;-78
2023/01/10 02:59:10;;;;;;;3.70;2.70;;;4.60;99.90;;;;;;5076007;28;20674;-78
2023/01/10 03:02:19;;;;;;;3.37;2.73;;;4.60;99.90;;;;;;5075859;28;20547;-78
2023/01/10 03:05:11;;;;;;;5.07;2.70;;;4.60;99.90;;;;;;5039383;28;20655;-78
2023/01/10 03:07:59;;;;;;;3.37;2.50;;;4.70;99.90;;;;;;5076589;28;20220;-78
2023/01/10 03:10:32;;;;;;;4.57;2.90;;;4.80;99.90;;;;;;5076764;28;20177;-78
2023/01/10 03:13:12;;;;;;;5.87;3.03;;;4.70;99.90;;;;;;5075526;28;20288;-78
2023/01/10 03:15:40;;;;;;;3.87;2.70;;;4.70;99.90;;;;;;5076261;28;20210;-78
2023/01/10 03:18:19;;;;;;;3.80;2.90;;;4.60;99.90;;;;;;5093584;28;20216;-78
2023/01/10 03:20:46;;;;;;;3.93;2.90;;;4.50;99.90;;;;;;5075521;28;20172;-78
2023/01/10 03:23:15;;;;;;;3.10;2.90;;;4.40;99.90;;;;;;5076105;28;20295;-78
2023/01/10 03:25:44;;;;;;;3.93;2.93;;;4.40;99.90;;;;;;5075735;28;20651;-78
2023/01/10 03:28:22;;;;;;;4.13;3.17;;;4.50;99.90;;;;;;5075344;28;20241;-78
2023/01/10 03:31:31;;;;;;;5.77;2.97;;;4.60;99.90;;;;;;5093541;28;20169;-78
2023/01/10 03:33:57;;;;;;;3.30;2.50;;;4.70;99.90;;;;;;5093514;28;20205;-78
2023/01/10 03:36:30;;;;;;;2.77;2.27;;;4.80;99.90;;;;;;5093453;28;20185;-78
2023/01/10 03:39:14;;;;;;;2.67;2.47;;;4.90;99.90;;;;;;5075329;28;20197;-78
2023/01/10 03:41:47;;;;;;;2.87;2.20;;;4.90;99.90;;;;;;5093754;28;20149;-78
2023/01/10 03:44:43;;;;;;;2.67;2.47;;;4.90;99.90;;;;;;5077471;28;20238;-78
2023/01/10 03:47:47;;;;;;;3.30;2.80;;;4.90;99.90;;;;;;5079334;28;20187;-78
2023/01/10 03:50:21;;;;;;;3.37;3.07;;;4.70;99.90;;;;;;5080430;28;20165;-78
2023/01/10 03:52:47;;;;;;;3.93;2.60;;;4.60;99.90;;;;;;5097280;28;20527;-78
2023/01/10 03:55:18;;;;;;;3.00;2.70;;;4.60;99.90;;;;;;5080004;28;20179;-78
2023/01/10 03:57:44;;;;;;;2.80;2.60;;;4.50;99.90;;;;;;5079229;28;20201;-78
2023/01/10 04:00:11;;;;;;;3.43;2.60;;;4.60;99.90;;;;;;5079234;28;20173;-78
2023/01/10 04:02:37;;;;;;;3.10;2.43;;;4.60;99.90;;;;;;5079439;28;20196;-78
2023/01/10 04:05:03;;;;;;;3.17;2.57;;;4.60;99.90;;;;;;5097078;28;20177;-78
2023/01/10 04:07:29;;;;;;;4.30;2.80;;;4.60;99.90;;;;;;5078901;28;20709;-78
2023/01/10 04:09:54;;;;;;;5.43;2.77;;;4.70;99.90;;;;;;5097117;28;20169;-78
2023/01/10 04:12:20;;;;;;;4.93;3.00;;;4.70;99.90;;;;;;5079212;28;20200;-78
2023/01/10 04:18:08;;;;;;;3.10;2.80;;;4.70;99.90;;;;;;5096920;28;20192;-78
2023/01/10 04:20:33;;;;;;;4.53;3.00;;;4.60;99.90;;;;;;5078829;28;20173;-78
2023/01/10 04:22:59;;;;;;;3.63;3.20;;;4.60;99.90;;;;;;5097065;28;20189;-78
2023/01/10 04:25:24;;;;;;;4.07;2.90;;;4.60;99.90;;;;;;5078994;28;20177;-78
2023/01/10 04:27:51;;;;;;;5.00;3.20;;;4.60;99.90;;;;;;5078786;28;20197;-78
2023/01/10 04:30:20;;;;;;;6.07;3.70;;;4.70;99.90;;;;;;5078539;28;20237;-78
2023/01/10 04:32:46;;;;;;;5.37;3.40;;;4.80;99.90;;;;;;5078411;28;20287;-78
2023/01/10 04:35:11;;;;;;;3.13;2.90;;;4.80;99.90;;;;;;5078410;28;20242;-78
2023/01/10 04:37:37;;;;;;;3.63;3.10;;;4.80;99.90;;;;;;5078373;28;20201;-78
2023/01/10 04:40:03;;;;;;;3.43;2.90;;;4.90;99.90;;;;;;5078459;28;20176;-78
2023/01/10 04:42:29;;;;;;;3.77;2.77;;;5.00;99.90;;;;;;5078173;28;20199;-78
2023/01/10 04:44:54;;;;;;;4.40;2.63;;;5.00;99.90;;;;;;5078398;28;20176;-78
2023/01/10 04:47:20;;;;;;;7.50;3.80;;;5.00;99.90;;;;;;5078328;28;20204;-78
2023/01/10 04:50:41;;;;;;;5.30;4.40;;;5.10;99.90;;;;;;5096547;28;20181;-78
2023/01/10 04:53:06;;;;;;;11.23;9.57;;;5.10;99.90;;;;;;5096647;28;20199;-78
2023/01/10 04:55:33;;;;;;;6.63;6.00;;;5.10;99.90;;;;;;5077459;28;20168;-78
2023/01/10 04:57:59;;;;;;;15.27;12.00;;;5.10;99.90;;;;;;5078421;28;20201;-78
2023/01/10 05:00:26;;;;;;;10.20;7.97;;;5.10;99.90;;;;;;5077998;28;20172;-78
2023/01/10 05:02:56;;;;;;;8.40;5.60;;;5.10;99.90;;;;;;5077919;28;20287;-78
2023/01/10 05:05:21;;;;;;;9.40;7.00;;;5.20;99.90;;;;;;5077940;28;20204;-78
2023/01/10 05:07:47;;;;;;;13.60;11.63;;;5.20;99.90;;;;;;5077996;28;20246;-78
2023/01/10 05:10:12;;;;;;;9.57;8.57;;;5.20;99.90;;;;;;5077977;28;20173;-78
2023/01/10 05:12:38;;;;;;;15.80;12.37;;;5.20;99.90;;;;;;5077919;28;20636;-78
2023/01/10 05:15:04;;;;;;;10.83;7.47;;;5.20;99.90;;;;;;5077787;28;20547;-78
2023/01/10 05:17:30;;;;;;;19.13;15.70;;;5.10;99.90;;;;;;5078263;28;20200;-78
2023/01/10 05:19:55;;;;;;;8.03;7.23;;;5.10;99.90;;;;;;5077985;28;20188;-78
2023/01/10 05:22:21;;;;;;;7.43;5.90;;;5.10;99.90;;;;;;5095731;28;20231;-78
2023/01/10 05:24:46;;;;;;;5.53;4.73;;;5.10;99.90;;;;;;5077692;28;20199;-78
2023/01/10 05:27:12;;;;;;;7.93;5.90;;;5.10;99.90;;;;;;5095607;28;20189;-78
2023/01/10 05:29:37;;;;;;;7.17;5.33;;;5.10;99.90;;;;;;5077896;28;20267;-78
2023/01/10 05:32:03;;;;;;;6.63;4.70;;;5.10;99.90;;;;;;5077599;28;20188;-79
2023/01/10 05:34:28;;;;;;;7.77;4.30;;;5.10;99.90;;;;;;5077684;28;20563;-78
2023/01/10 05:36:54;;;;;;;4.60;4.20;;;5.20;99.90;;;;;;5077659;28;20188;-78
2023/01/10 05:39:20;;;;;;;6.43;4.70;;;5.10;99.90;;;;;;5077264;28;20196;-78
2023/01/10 05:41:46;;;;;;;4.97;4.47;;;5.10;99.90;;;;;;5077320;28;20180;-79
2023/01/10 05:44:11;;;;;;;5.00;4.50;;;5.10;99.90;;;;;;5077117;28;20701;-79
2023/01/10 05:46:37;;;;;;;8.87;6.37;;;5.10;99.90;;;;;;5077215;28;20181;-79
2023/01/10 05:49:20;;;;;;;9.77;7.50;;;5.10;99.90;;;;;;5077458;28;20177;-77
2023/01/10 05:51:56;;;;;;;8.73;5.07;;;5.10;99.90;;;;;;5077282;28;20181;-78
2023/01/10 05:54:32;;;;;;;6.70;5.37;;;5.00;99.90;;;;;;5077118;28;20211;-78
2023/01/10 05:56:57;;;;;;;5.53;4.93;;;5.10;99.90;;;;;;5077458;28;20165;-77
2023/01/10 05:59:41;;;;;;;5.80;4.30;;;5.00;99.90;;;;;;5077357;28;20214;-76
2023/01/10 06:02:25;;;;;;;6.70;6.00;;;4.90;99.90;;;;;;5077356;28;20180;-75
2023/01/10 06:04:59;;;;;;;4.33;3.93;;;4.80;99.90;;;;;;5076898;28;20169;-77
2023/01/10 06:07:24;;;;;;;6.30;4.73;;;4.70;99.90;;;;;;5056001;28;20178;-77
2023/01/10 06:09:50;;;;;;;5.27;4.70;;;4.60;99.90;;;;;;5057081;28;20595;-77
2023/01/10 06:15:54;;;;;;;4.40;4.00;;;4.40;99.90;;;;;;5088947;28;20200;-77
2023/01/10 06:18:19;;;;;;;5.43;4.93;;;4.40;99.90;;;;;;5062461;28;20188;-77
2023/01/10 06:20:45;;;;;;;6.83;4.60;;;4.40;99.90;;;;;;5056444;28;20264;-77
2023/01/10 06:23:11;;;;;;;5.40;4.53;;;4.30;99.90;;;;;;5074520;28;20197;-77
2023/01/10 06:25:39;;;;;;;7.57;4.47;;;4.30;99.90;;;;;;5056307;28;20230;-77
2023/01/10 06:28:05;;;;;;;5.83;4.37;;;4.30;99.90;;;;;;5056548;28;20197;-77
2023/01/10 06:30:40;;;;;;;5.57;4.17;;;4.30;99.90;;;;;;5074350;28;20230;-77
2023/01/10 06:33:08;;;;;;;6.67;3.90;;;4.30;99.90;;;;;;5057100;28;20201;-77
2023/01/10 06:35:34;;;;;;;5.60;4.43;;;4.40;99.90;;;;;;5074399;28;20188;-77
2023/01/10 06:38:00;;;;;;;6.23;4.23;;;4.40;99.90;;;;;;5056777;28;20213;-77
2023/01/10 06:40:26;;;;;;;7.77;4.57;;;4.40;99.90;;;;;;5057578;28;20182;-76
2023/01/10 06:42:51;;;;;;;7.07;4.70;;;4.40;99.90;;;;;;5074058;28;20193;-77
2023/01/10 06:45:17;;;;;;;6.90;4.57;;;4.40;99.90;;;;;;5056159;28;20181;-77
2023/01/10 06:47:43;;;;;;;7.87;5.23;;;4.40;99.90;;;;;;5056627;28;20544;-77
2023/01/10 06:50:09;;;;;;;6.60;4.73;;;4.50;99.90;;;;;;5056090;28;20209;-77
2023/01/10 06:52:35;;;;;;;5.07;4.40;;;4.50;99.90;;;;;;5056815;28;20193;-77
2023/01/10 06:55:00;;;;;;;5.17;4.63;;;4.50;99.90;;;;;;5056071;28;20226;-77
2023/01/10 06:57:27;;;;;;;10.00;4.50;;;4.60;99.90;;;;;;5055920;28;20227;-77
2023/01/10 07:00:33;;;;;;;5.03;4.03;;;4.60;99.90;;;;;;5056007;28;20173;-77
2023/01/10 07:03:00;;;;;;;5.67;4.40;;;4.60;99.90;;;;;;5055951;28;20193;-77
2023/01/10 07:05:27;;;;;;;7.23;5.23;;;4.60;99.90;;;;;;5056133;28;20296;-77
2023/01/10 07:07:53;;;;;;;10.50;8.53;;;4.60;99.90;;;;;;5056144;28;20201;-77
2023/01/10 07:10:18;;;;;;;8.93;6.60;;;4.60;99.90;;;;;;5074510;28;20200;-77
2023/01/10 07:12:44;;;;;;;11.37;10.13;;;4.60;99.90;;;;;;5084334;28;20211;-77
2023/01/10 07:15:10;;;;;;;8.97;8.13;;;4.50;99.90;;;;;;5095963;28;20267;-77
2023/01/10 07:17:36;;;;;;;10.53;6.97;;;4.50;99.90;;;;;;5096178;28;20290;-77
2023/01/10 07:20:01;;;;;;;13.47;11.07;;;4.50;99.90;;;;;;5095793;28;20243;-77
2023/01/10 07:22:27;;;;;;;11.30;7.20;;;4.40;99.90;;;;;;5094637;28;20176;-77
2023/01/10 07:24:53;;;;;;;8.90;7.30;;;4.40;99.90;;;;;;5075492;28;20186;-77
2023/01/10 07:27:19;;;;;;;25.53;18.30;;;4.40;99.90;;;;;;5075462;28;20199;-77
2023/01/10 07:29:45;;;;;;;23.40;16.07;;;4.40;99.90;;;;;;5075665;28;20748;-77
2023/01/10 07:32:11;;;;;;;9.63;6.83;;;4.50;99.90;;;;;;5075140;28;20273;-77
2023/01/10 07:34:36;;;;;;;10.00;5.40;;;4.50;99.90;;;;;;5075726;28;20263;-77
2023/01/10 07:37:02;;;;;;;9.20;5.20;;;4.40;99.90;;;;;;5075329;28;20173;-77
2023/01/10 07:39:27;;;;;;;13.13;8.60;;;4.40;99.90;;;;;;5075494;28;20205;-77
2023/01/10 07:41:54;;;;;;;9.43;6.30;;;4.40;99.90;;;;;;5075108;28;20181;-77
2023/01/10 07:44:19;;;;;;;8.87;5.83;;;4.40;99.90;;;;;;5063368;28;20221;-78
2023/01/10 07:46:45;;;;;;;8.03;5.00;;;4.50;99.90;;;;;;5066030;28;20193;-77
2023/01/10 07:49:12;;;;;;;9.10;6.80;;;4.60;99.90;;;;;;5056838;28;20538;-78
2023/01/10 07:51:38;;;;;;;19.43;13.83;;;4.70;99.90;;;;;;5067616;28;20191;-77
2023/01/10 07:54:04;;;;;;;14.43;9.40;;;4.70;99.90;;;;;;5075177;28;20200;-77
2023/01/10 07:56:29;;;;;;;11.63;5.70;;;4.80;99.90;;;;;;5075183;28;20217;-77
2023/01/10 07:58:55;;;;;;;10.57;5.40;;;4.90;99.90;;;;;;5075023;28;20256;-77
2023/01/10 08:01:20;;;;;;;13.70;7.03;;;4.90;99.90;;;;;;5094348;28;20260;-79
2023/01/10 08:03:46;;;;;;;12.27;5.53;;;5.00;99.90;;;;;;5076523;28;20286;-79
2023/01/10 08:06:12;;;;;;;8.97;5.20;;;5.00;99.90;;;;;;5075780;28;20169;-79
2023/01/10 08:08:38;;;;;;;13.03;5.60;;;5.20;99.90;;;;;;5075837;28;20184;-79
2023/01/10 08:11:04;;;;;;;9.10;4.87;;;5.20;99.90;;;;;;5076890;28;20244;-79
2023/01/10 08:13:31;;;;;;;13.50;5.47;;;5.20;99.90;;;;;;5076316;28;20228;-79
2023/01/10 08:15:57;;;;;;;11.87;7.53;;;5.20;99.90;;;;;;5093838;28;20546;-79
2023/01/10 08:18:23;;;;;;;11.57;7.53;;;5.30;99.90;;;;;;5076093;28;20201;-79
2023/01/10 08:20:50;;;;;;;7.50;4.40;;;5.30;99.90;;;;;;5075911;28;20208;-79
2023/01/10 08:23:17;;;;;;;11.70;4.70;;;5.30;99.90;;;;;;5093324;28;20304;-79
2023/01/10 08:25:43;;;;;;;8.77;3.80;;;5.20;99.90;;;;;;5076318;28;20233;-79
2023/01/10 08:28:09;;;;;;;10.47;4.53;;;5.20;99.90;;;;;;5075899;28;20220;-78
2023/01/10 08:30:35;;;;;;;8.00;4.43;;;5.00;99.90;;;;;;5093813;28;20643;-78
2023/01/10 08:33:02;;;;;;;10.20;4.63;;;5.00;99.90;;;;;;5078904;28;20193;-78
2023/01/10 08:35:28;;;;;;;10.07;4.43;;;4.80;99.90;;;;;;5079051;28;20169;-78
2023/01/10 08:37:58;;;;;;;8.27;4.00;;;4.90;99.90;;;;;;5096293;28;20208;-78
2023/01/10 08:40:24;;;;;;;9.17;3.57;;;5.10;99.90;;;;;;5078557;28;20184;-78
2023/01/10 08:43:41;;;;;;;8.80;3.50;;;5.20;99.90;;;;;;5096567;28;20197;-78
2023/01/10 08:48:56;;;;;;;11.93;8.50;;;5.20;99.90;;;;;;5085711;23;20232;-78
2023/01/10 08:51:21;;;;;;;12.10;7.00;;;5.10;99.90;;;;;;4996127;28;20188;-78
2023/01/10 08:53:47;;;;;;;6.83;4.83;;;5.10;99.90;;;;;;4996074;28;20181;-78
2023/01/10 08:56:13;;;;;;;7.50;3.70;;;5.00;99.90;;;;;;4995767;28;20180;-78
2023/01/10 08:58:38;;;;;;;6.63;3.87;;;5.00;99.90;;;;;;4995698;28;20298;-78
2023/01/10 09:01:08;;;;;;;6.20;3.40;;;5.10;99.90;;;;;;4997059;28;20718;-78
2023/01/10 09:03:34;;;;;;;8.70;4.23;;;5.10;99.90;;;;;;4995732;28;20200;-78
2023/01/10 09:06:01;;;;;;;11.97;4.03;;;5.10;99.90;;;;;;4996449;28;20214;-78
2023/01/10 09:08:27;;;;;;;11.17;6.63;;;5.10;99.90;;;;;;4997122;28;20224;-78
2023/01/10 09:10:53;;;;;;;21.00;15.20;;;5.20;99.90;;;;;;4995644;28;20271;-78
2023/01/10 09:13:18;;;;;;;15.67;9.83;;;5.30;99.90;;;;;;4996329;28;20230;-79
2023/01/10 09:15:45;;;;;;;11.87;8.43;;;5.50;99.90;;;;;;4996507;28;20183;-78
2023/01/10 09:18:12;;;;;;;10.87;5.30;;;5.60;99.90;;;;;;4995958;28;20204;-79
2023/01/10 09:20:39;;;;;;;15.02;5.60;;;5.90;99.90;;;;;;4995613;28;20190;-78
2023/01/10 09:23:07;;;;;;;12.82;8.48;;;6.10;99.90;;;;;;4995599;28;20203;-79
2023/01/10 09:25:33;;;;;;;9.82;8.68;;;6.20;99.90;;;;;;4996948;28;20172;-79
2023/01/10 09:28:00;;;;;;;10.50;5.30;;;6.10;99.90;;;;;;4995302;28;20208;-79
2023/01/10 09:30:27;;;;;;;10.37;7.73;;;6.10;99.90;;;;;;4995024;28;20188;-78
2023/01/10 09:32:54;;;;;;;12.10;8.45;;;6.10;99.90;;;;;;4995117;28;20596;-78
2023/01/10 09:35:20;;;;;;;8.38;4.50;;;6.20;99.90;;;;;;4995003;28;20642;-79
2023/01/10 09:37:45;;;;;;;7.07;3.90;;;6.40;99.90;;;;;;4996229;28;20235;-78
2023/01/10 09:40:18;;;;;;;11.77;4.15;;;6.60;99.90;;;;;;4995511;28;20682;-79
2023/01/10 09:43:20;;;;;;;8.57;3.50;;;6.70;99.90;;;;;;5005214;28;20621;-78
2023/01/10 09:46:08;;;;;;;10.70;5.90;;;6.70;99.90;;;;;;5014468;28;20177;-79
2023/01/10 09:48:59;;;;;;;12.38;6.63;;;6.80;99.90;;;;;;4975519;28;20209;-79
2023/01/10 09:51:42;;;;;;;18.00;12.18;;;6.90;99.90;;;;;;4984517;28;20179;-78
2023/01/10 09:54:30;;;;;;;14.07;9.30;;;6.90;99.90;;;;;;4992847;28;20329;-78
2023/01/10 09:56:59;;;;;;;16.58;11.10;;;6.90;99.90;;;;;;5002407;28;20200;-78
2023/01/10 09:59:27;;;;;;;14.77;9.52;;;6.80;99.90;;;;;;4995007;28;20192;-78
2023/01/10 10:02:02;;;;;;;62.67;38.63;;;6.70;99.90;;;;;;4995175;28;20306;-79
2023/01/10 10:04:36;;;;;;;19.67;12.73;;;6.70;99.90;;;;;;4993730;28;20172;-78
2023/01/10 10:07:03;;;;;;;13.60;8.88;;;6.60;99.90;;;;;;4995114;28;20196;-78
2023/01/10 10:09:31;;;;;;;12.00;4.88;;;6.70;99.90;;;;;;4994102;28;20255;-78
2023/01/10 10:12:18;;;;;;;8.35;3.90;;;6.70;99.90;;;;;;4995182;28;20216;-78
2023/01/10 10:15:10;;;;;;;10.02;3.50;;;6.70;99.90;;;;;;5008520;28;20225;-79
2023/01/10 10:17:46;;;;;;;10.40;3.53;;;6.70;99.90;;;;;;5000522;28;20200;-79
2023/01/10 10:20:23;;;;;;;9.10;4.03;;;6.60;99.90;;;;;;5002502;28;20168;-79
2023/01/10 10:23:05;;;;;;;14.48;4.45;;;6.60;99.90;;;;;;5005875;28;20172;-78
2023/01/10 10:25:57;;;;;;;11.88;5.47;;;6.70;99.90;;;;;;5012553;28;20255;-79
2023/01/10 10:28:54;;;;;;;6.03;3.13;;;6.70;99.90;;;;;;4998968;28;20208;-79
2023/01/10 10:31:58;;;;;;;10.25;4.10;;;6.70;99.90;;;;;;5001563;28;20213;-78
2023/01/10 10:34:36;;;;;;;8.63;4.13;;;6.80;99.90;;;;;;4993244;28;20188;-79
2023/01/10 10:37:16;;;;;;;22.27;14.02;;;6.80;99.90;;;;;;4994743;28;20250;-78
2023/01/10 10:40:00;;;;;;;10.32;4.13;;;6.70;99.90;;;;;;4993514;28;20664;-79
2023/01/10 10:42:40;;;;;;;9.43;3.90;;;6.70;99.90;;;;;;5004637;28;20526;-78
2023/01/10 10:45:40;;;;;;;7.05;3.22;;;6.80;99.90;;;;;;5003399;28;20192;-78
2023/01/10 10:48:27;;;;;;;12.65;4.07;;;6.90;99.90;;;;;;5009283;28;20223;-79
2023/01/10 10:51:11;;;;;;;10.82;4.38;;;6.90;99.90;;;;;;5001560;28;20203;-79
2023/01/10 10:53:46;;;;;;;14.55;9.13;;;6.80;99.90;;;;;;5007454;28;20222;-79
2023/01/10 10:56:22;;;;;;;10.20;4.28;;;6.90;99.90;;;;;;4996447;28;20183;-78
2023/01/10 10:59:02;;;;;;;18.33;7.30;;;6.90;99.90;;;;;;5006834;28;20647;-79
2023/01/10 11:01:36;;;;;;;76.72;44.92;;;6.90;99.90;;;;;;5004738;28;20183;-79
2023/01/10 11:04:12;;;;;;;41.83;28.38;;;6.90;99.90;;;;;;5010330;28;20164;-79
2023/01/10 11:06:48;;;;;;;16.05;9.95;;;6.90;99.90;;;;;;4996861;28;20191;-78
2023/01/10 11:09:31;;;;;;;11.43;4.13;;;7.00;99.90;;;;;;4982319;28;20179;-78
2023/01/10 11:11:58;;;;;;;10.10;3.83;;;7.10;99.90;;;;;;5004777;28;20175;-77
2023/01/10 11:14:50;;;;;;;11.70;3.78;;;7.10;99.90;;;;;;5009763;28;20191;-77
2023/01/10 11:17:33;;;;;;;12.25;3.60;;;7.10;99.90;;;;;;5012665;28;20221;-77
2023/01/10 11:20:36;;;;;;;10.55;3.17;;;7.10;99.90;;;;;;5012737;28;20187;-77
2023/01/10 11:23:08;;;;;;;8.05;2.90;;;7.10;99.90;;;;;;5005896;28;20278;-77
2023/01/10 11:26:01;;;;;;;14.80;3.80;;;7.10;99.90;;;;;;5004202;28;20198;-77
2023/01/10 11:28:33;;;;;;;11.07;3.95;;;7.20;99.90;;;;;;5001801;28;20234;-77
2023/01/10 11:31:01;;;;;;;11.75;3.42;;;7.10;99.90;;;;;;5012366;28;20199;-77
2023/01/10 11:33:43;;;;;;;9.90;3.05;;;7.20;99.90;;;;;;5012201;28;20241;-77
2023/01/10 11:36:17;;;;;;;13.40;4.80;;;7.30;99.90;;;;;;5012240;28;20250;-77
2023/01/10 11:39:05;;;;;;;13.23;7.60;;;7.20;99.90;;;;;;5011605;28;20208;-77
2023/01/10 11:41:47;;;;;;;28.77;19.73;;;7.20;99.90;;;;;;5011637;28;20163;-77
2023/01/10 11:44:25;;;;;;;31.58;19.85;;;7.20;99.90;;;;;;5011631;28;20152;-77
2023/01/10 11:47:19;;;;;;;31.38;18.08;;;7.10;99.90;;;;;;5010459;28;20184;-77
2023/01/10 11:49:58;;;;;;;36.70;27.23;;;7.20;99.90;;;;;;5009992;28;20198;-77
2023/01/10 11:52:35;;;;;;;34.95;22.15;;;7.20;99.90;;;;;;5010655;28;20182;-77
2023/01/10 11:55:13;;;;;;;30.42;19.45;;;7.20;99.90;;;;;;5012144;28;20183;-77
2023/01/10 11:57:55;;;;;;;28.85;17.15;;;7.20;99.90;;;;;;5012546;28;22147;-77
2023/01/10 12:00:32;;;;;;;20.52;11.85;;;7.20;99.90;;;;;;5012223;28;20190;-77
2023/01/10 12:03:16;;;;;;;15.95;6.88;;;7.30;99.90;;;;;;5013453;28;20182;-77
2023/01/10 12:06:20;;;;;;;18.05;8.65;;;7.20;99.90;;;;;;5016163;28;20156;-77
2023/01/10 12:08:57;;;;;;;15.85;10.15;;;7.30;99.90;;;;;;5017077;28;20199;-77
2023/01/10 12:11:34;;;;;;;14.05;6.47;;;7.20;99.90;;;;;;5016637;28;20285;-77
2023/01/10 12:14:23;;;;;;;13.57;6.75;;;7.20;99.90;;;;;;5016068;28;20186;-76
2023/01/10 12:17:04;;;;;;;15.60;7.30;;;7.20;99.90;;;;;;5016931;28;20172;-77
2023/01/10 12:19:46;;;;;;;9.60;4.40;;;7.30;99.90;;;;;;5015800;28;20203;-77
2023/01/10 12:22:32;;;;;;;12.55;7.40;;;7.20;99.90;;;;;;5016149;28;20182;-77
2023/01/10 12:25:14;;;;;;;15.77;5.68;;;7.20;99.90;;;;;;5015782;28;20217;-76
2023/01/10 12:27:52;;;;;;;12.80;5.07;;;7.20;99.90;;;;;;5016248;28;20211;-77
2023/01/10 12:30:49;;;;;;;15.82;7.18;;;7.30;99.90;;;;;;5016393;28;20187;-76
2023/01/10 12:33:30;;;;;;;13.98;5.30;;;7.20;99.90;;;;;;5016995;28;20179;-76
2023/01/10 12:36:32;;;;;;;15.05;5.88;;;7.20;99.90;;;;;;5017354;28;20226;-76
2023/01/10 12:39:33;;;;;;;12.52;3.95;;;7.10;99.90;;;;;;5017383;28;20203;-76
2023/01/10 12:45:30;;;;;;;15.05;4.38;;;7.00;99.90;;;;;;5016975;28;20653;-76
2023/01/10 12:48:09;;;;;;;14.65;5.30;;;6.90;99.90;;;;;;5016019;28;20711;-76
2023/01/10 12:50:52;;;;;;;14.10;6.20;;;6.90;99.90;;;;;;5016190;28;20202;-84
2023/01/10 12:53:35;;;;;;;17.27;7.07;;;6.80;99.90;;;;;;5017170;28;20668;-76
2023/01/10 12:56:13;;;;;;;16.52;5.20;;;6.80;99.90;;;;;;5015582;28;20187;-76
2023/01/10 12:58:55;;;;;;;12.68;3.72;;;6.80;99.90;;;;;;5015446;28;20215;-76
2023/01/10 13:01:42;;;;;;;13.18;2.92;;;6.80;99.90;;;;;;5015322;28;20180;-76
2023/01/10 13:04:27;;;;;;;10.48;3.05;;;6.70;99.90;;;;;;5015441;28;20195;-76
2023/01/10 13:07:02;;;;;;;12.05;3.67;;;6.70;99.90;;;;;;5016247;28;20200;-76
2023/01/10 13:09:32;;;;;;;10.25;3.20;;;6.70;99.90;;;;;;5016296;28;20243;-76
2023/01/10 13:12:16;;;;;;;12.00;3.35;;;6.70;99.90;;;;;;5016538;28;20179;-77
2023/01/10 13:15:55;;;;;;;12.68;3.30;;;6.70;99.90;;;;;;5014804;28;20233;-76
2023/01/10 13:18:36;;;;;;;15.63;3.92;;;6.60;99.90;;;;;;4934458;28;20716;-76
2023/01/10 13:21:38;;;;;;;9.57;3.40;;;6.60;99.90;;;;;;5014724;28;20234;-76
2023/01/10 13:24:16;;;;;;;11.00;2.95;;;6.60;99.90;;;;;;5013940;28;20186;-76
2023/01/10 13:26:59;;;;;;;10.95;2.70;;;6.60;99.90;;;;;;5015371;28;20164;-76
2023/01/10 13:29:40;;;;;;;12.07;2.83;;;6.60;99.90;;;;;;5015981;28;20185;-76
2023/01/10 13:32:37;;;;;;;10.23;2.80;;;6.60;99.90;;;;;;5014634;28;20195;-76
2023/01/10 13:35:37;;;;;;;14.23;3.08;;;6.60;99.90;;;;;;5003755;28;20198;-76
2023/01/10 13:38:03;;;;;;;10.77;3.40;;;6.60;99.90;;;;;;5014494;28;20258;-75
2023/01/10 13:40:30;;;;;;;11.32;2.95;;;6.60;99.90;;;;;;5014308;28;20180;-75
2023/01/10 13:43:36;;;;;;;10.60;2.88;;;6.50;99.90;;;;;;5014217;28;20222;-75
2023/01/10 13:46:24;;;;;;;11.80;3.10;;;6.60;99.90;;;;;;5013223;28;20183;-75
2023/01/10 13:48:50;;;;;;;11.82;3.22;;;6.60;99.90;;;;;;5015107;28;20283;-75